createdAt,value
2018-08-16T00:01:45.621Z,8.43
2018-08-16T00:04:14.299Z,11.03
2018-08-16T00:06:43.076Z,11.53
2018-08-16T00:09:11.811Z,7.87
2018-08-16T00:11:40.586Z,10.80
2018-08-16T00:14:09.345Z,10.27
2018-08-16T00:16:38.073Z,10.03
2018-08-16T00:19:06.928Z,9.97
2018-08-16T00:21:35.611Z,10.77
2018-08-16T00:24:04.304Z,8.93
2018-08-16T00:26:32.963Z,8.87
2018-08-16T00:29:01.648Z,10.27
2018-08-16T00:31:30.338Z,10.67
2018-08-16T00:33:59.076Z,10.97
2018-08-16T00:36:27.799Z,9.27
2018-08-16T00:38:56.467Z,9.43
2018-08-16T00:41:25.337Z,13.90
2018-08-16T00:43:54.080Z,10.77
2018-08-16T00:46:22.808Z,10.73
2018-08-16T00:48:51.615Z,9.43
2018-08-16T00:51:20.272Z,10.03
2018-08-16T00:53:48.991Z,10.43
2018-08-16T00:56:18.865Z,8.57
2018-08-16T00:58:47.475Z,12.27
2018-08-16T01:01:16.122Z,8.37
2018-08-16T01:03:44.768Z,9.27
2018-08-16T01:06:13.472Z,9.83
2018-08-16T01:08:42.132Z,11.57
2018-08-16T01:11:12.278Z,11.87
2018-08-16T01:13:41.195Z,10.00
2018-08-16T01:16:09.870Z,9.13
2018-08-16T01:18:38.561Z,9.00
2018-08-16T01:21:07.379Z,14.03
2018-08-16T01:23:36.077Z,9.83
2018-08-16T01:26:04.854Z,10.60
2018-08-16T01:28:33.595Z,10.73
2018-08-16T01:31:02.303Z,11.77
2018-08-16T01:33:31.254Z,10.50
2018-08-16T01:35:59.975Z,10.37
2018-08-16T01:38:28.696Z,11.07
2018-08-16T01:40:57.427Z,12.00
2018-08-16T01:43:26.143Z,12.63
2018-08-16T01:45:54.865Z,10.23
2018-08-16T01:48:23.575Z,9.20
2018-08-16T01:50:52.220Z,14.07
2018-08-16T01:53:20.918Z,10.90
2018-08-16T01:55:49.603Z,17.17
2018-08-16T01:58:18.346Z,18.63
2018-08-16T02:00:47.048Z,15.13
2018-08-16T02:03:15.838Z,10.33
2018-08-16T02:05:44.595Z,9.93
2018-08-16T02:08:13.300Z,10.47
2018-08-16T02:10:42.144Z,9.77
2018-08-16T02:13:10.911Z,10.27
2018-08-16T02:15:39.615Z,12.40
2018-08-16T02:18:08.398Z,14.40
2018-08-16T02:20:37.174Z,11.17
2018-08-16T02:23:05.946Z,12.63
2018-08-16T02:25:34.648Z,10.60
2018-08-16T02:28:03.403Z,17.17
2018-08-16T02:30:32.122Z,12.40
2018-08-16T02:33:00.911Z,10.53
2018-08-16T02:35:29.601Z,17.33
2018-08-16T02:37:58.317Z,12.33
2018-08-16T02:40:26.988Z,17.77
2018-08-16T02:42:55.704Z,15.13
2018-08-16T02:45:24.417Z,17.87
2018-08-16T02:47:53.118Z,14.83
2018-08-16T02:50:21.835Z,20.33
2018-08-16T02:52:51.046Z,21.87
2018-08-16T02:55:19.810Z,20.50
2018-08-16T02:57:48.511Z,21.77
2018-08-16T03:00:17.318Z,19.50
2018-08-16T03:02:46.050Z,22.33
2018-08-16T03:05:14.793Z,21.60
2018-08-16T03:07:44.113Z,21.60
2018-08-16T03:10:12.850Z,24.17
2018-08-16T03:12:41.675Z,24.50
2018-08-16T03:15:11.200Z,22.67
2018-08-16T03:17:40.280Z,25.53
2018-08-16T03:20:09.290Z,23.77
2018-08-16T03:22:38.027Z,23.93
2018-08-16T03:25:06.854Z,23.53
2018-08-16T03:27:35.499Z,26.13
2018-08-16T03:30:05.486Z,23.63
2018-08-16T03:32:34.428Z,24.73
2018-08-16T03:35:03.156Z,24.60
2018-08-16T03:37:31.849Z,23.90
2018-08-16T03:40:00.507Z,24.87
2018-08-16T03:42:29.237Z,22.33
2018-08-16T03:44:57.950Z,22.13
2018-08-16T03:47:26.580Z,19.93
2018-08-16T03:49:55.254Z,19.23
2018-08-16T03:52:23.959Z,18.17
2018-08-16T03:54:52.603Z,18.20
2018-08-16T03:57:21.228Z,16.77
2018-08-16T03:59:49.898Z,18.37
2018-08-16T04:02:18.562Z,17.13
2018-08-16T04:04:47.228Z,12.87
2018-08-16T04:07:15.926Z,23.90
2018-08-16T04:09:44.661Z,16.93
2018-08-16T04:12:13.409Z,20.03
2018-08-16T04:14:42.167Z,18.90
2018-08-16T04:17:11.167Z,16.13
2018-08-16T04:19:39.925Z,17.67
2018-08-16T04:22:08.659Z,18.07
2018-08-16T04:24:37.338Z,20.53
2018-08-16T04:27:06.129Z,16.30
2018-08-16T04:29:34.889Z,16.27
2018-08-16T04:32:03.638Z,14.80
2018-08-16T04:34:32.271Z,16.30
2018-08-16T04:37:00.935Z,13.27
2018-08-16T04:39:29.609Z,13.37
2018-08-16T04:41:58.355Z,15.60
2018-08-16T04:44:27.053Z,11.43
2018-08-16T04:46:55.707Z,12.87
2018-08-16T04:49:24.412Z,14.37
2018-08-16T04:51:53.086Z,11.07
2018-08-16T04:54:21.782Z,14.90
2018-08-16T04:56:50.474Z,14.03
2018-08-16T04:59:19.134Z,14.07
2018-08-16T05:01:47.847Z,13.07
2018-08-16T05:04:16.524Z,20.03
2018-08-16T05:06:45.315Z,17.97
2018-08-16T05:09:14.021Z,19.43
2018-08-16T05:11:42.814Z,18.93
2018-08-16T05:14:11.944Z,16.60
2018-08-16T05:16:41.139Z,16.00
2018-08-16T05:19:09.792Z,24.03
2018-08-16T05:21:38.559Z,15.50
2018-08-16T05:24:07.277Z,19.57
2018-08-16T05:26:35.929Z,15.10
2018-08-16T05:29:04.761Z,16.53
2018-08-16T05:31:33.455Z,14.53
2018-08-16T05:34:02.159Z,15.07
2018-08-16T05:36:30.878Z,13.83
2018-08-16T05:38:59.579Z,17.53
2018-08-16T05:41:28.286Z,16.07
2018-08-16T05:43:56.971Z,13.17
2018-08-16T05:46:25.668Z,15.33
2018-08-16T05:48:54.479Z,17.50
2018-08-16T05:51:23.170Z,15.37
2018-08-16T05:53:51.863Z,20.80
2018-08-16T05:56:20.609Z,14.07
2018-08-16T05:58:49.251Z,17.13
2018-08-16T06:01:17.987Z,20.03
2018-08-16T06:03:46.679Z,17.53
2018-08-16T06:06:15.403Z,20.47
2018-08-16T06:08:44.046Z,21.07
2018-08-16T06:11:12.778Z,16.27
2018-08-16T06:13:41.499Z,21.73
2018-08-16T06:16:10.268Z,21.17
2018-08-16T06:18:38.963Z,14.57
2018-08-16T06:21:07.735Z,20.13
2018-08-16T06:23:36.451Z,15.23
2018-08-16T06:26:05.226Z,16.87
2018-08-16T06:28:34.179Z,13.63
2018-08-16T06:31:02.934Z,11.97
2018-08-16T06:33:31.803Z,17.93
2018-08-16T06:36:00.626Z,15.67
2018-08-16T06:38:29.458Z,18.73
2018-08-16T06:40:58.208Z,19.23
2018-08-16T06:43:26.975Z,16.73
2018-08-16T06:45:55.749Z,16.73
2018-08-16T06:48:24.464Z,16.43
2018-08-16T06:50:53.263Z,14.83
2018-08-16T06:53:21.971Z,18.87
2018-08-16T06:55:50.725Z,17.63
2018-08-16T06:58:19.482Z,20.93
2018-08-16T07:00:48.200Z,14.73
2018-08-16T07:03:16.927Z,12.30
2018-08-16T07:05:45.682Z,12.87
2018-08-16T07:08:14.469Z,26.60
2018-08-16T07:12:12.851Z,16.40
2018-08-16T07:14:42.175Z,10.93
2018-08-16T07:17:11.738Z,18.87
2018-08-16T07:19:40.448Z,17.70
2018-08-16T07:22:09.284Z,9.27
2018-08-16T07:24:38.043Z,14.33
2018-08-16T07:27:06.785Z,13.63
2018-08-16T07:29:35.496Z,17.67
2018-08-16T07:32:04.358Z,15.03
2018-08-16T07:34:33.141Z,12.17
2018-08-16T07:37:01.815Z,13.87
2018-08-16T07:39:30.538Z,13.23
2018-08-16T07:41:59.472Z,12.50
2018-08-16T07:44:28.131Z,13.37
2018-08-16T07:46:56.790Z,11.70
2018-08-16T07:49:26.412Z,16.33
2018-08-16T07:51:55.167Z,16.20
2018-08-16T07:54:23.863Z,13.30
2018-08-16T07:56:52.531Z,16.77
2018-08-16T07:59:21.212Z,13.27
2018-08-16T08:01:49.948Z,20.50
2018-08-16T08:04:18.626Z,27.23
2018-08-16T08:06:47.400Z,16.97
2018-08-16T08:09:16.201Z,13.03
2018-08-16T08:11:44.959Z,10.17
2018-08-16T08:14:13.693Z,15.47
2018-08-16T08:16:42.433Z,11.67
2018-08-16T08:19:11.103Z,13.27
2018-08-16T08:21:39.811Z,14.23
2018-08-16T08:24:08.509Z,19.23
2018-08-16T08:26:37.256Z,13.03
2018-08-16T08:29:06.059Z,13.90
2018-08-16T08:31:34.826Z,15.00
2018-08-16T08:34:03.546Z,11.60
2018-08-16T08:36:43.407Z,10.20
2018-08-16T08:39:12.427Z,14.10
2018-08-16T08:41:41.322Z,13.20
2018-08-16T08:44:19.987Z,12.20
2018-08-16T08:46:50.072Z,15.73
2018-08-16T08:49:19.135Z,8.93
2018-08-16T08:51:48.522Z,11.40
2018-08-16T08:54:32.618Z,13.10
2018-08-16T08:58:16.270Z,11.87
2018-08-16T09:00:44.972Z,10.50
2018-08-16T09:03:13.656Z,9.10
2018-08-16T09:05:42.338Z,8.25
2018-08-16T09:08:11.062Z,7.77
2018-08-16T09:10:50.121Z,9.10
2018-08-16T09:13:29.905Z,9.33
2018-08-16T09:15:59.907Z,8.03
2018-08-16T09:18:28.606Z,8.40
2018-08-16T09:20:57.934Z,8.50
2018-08-16T09:23:26.718Z,11.33
2018-08-16T09:25:55.380Z,11.12
2018-08-16T09:28:24.364Z,11.35
2018-08-16T09:31:04.136Z,8.73
2018-08-16T09:33:43.979Z,8.37
2018-08-16T09:36:12.783Z,8.53
2018-08-16T09:38:41.475Z,7.12
2018-08-16T09:41:10.232Z,8.30
2018-08-16T09:43:38.847Z,8.40
2018-08-16T09:46:47.160Z,7.00
2018-08-16T09:49:16.174Z,6.92
2018-08-16T09:51:46.200Z,7.72
2018-08-16T09:54:14.959Z,12.53
2018-08-16T09:56:44.439Z,7.95
2018-08-16T09:59:13.257Z,13.25
2018-08-16T10:01:41.968Z,9.70
2018-08-16T10:04:10.970Z,6.25
2018-08-16T10:06:40.744Z,10.05
2018-08-16T10:09:20.101Z,8.78
2018-08-16T10:11:49.067Z,7.85
2018-08-16T10:14:18.075Z,5.90
2018-08-16T10:16:46.789Z,7.45
2018-08-16T10:19:15.550Z,7.25
2018-08-16T10:21:44.376Z,7.90
2018-08-16T10:24:13.188Z,8.70
2018-08-16T10:26:42.201Z,6.33
2018-08-16T10:29:11.363Z,9.50
2018-08-16T10:31:40.240Z,8.38
2018-08-16T10:34:08.920Z,7.60
2018-08-16T10:36:37.670Z,6.75
2018-08-16T10:39:09.397Z,7.28
2018-08-16T10:41:38.170Z,5.30
2018-08-16T10:44:06.991Z,6.62
2018-08-16T10:46:35.713Z,7.65
2018-08-16T10:49:04.525Z,6.85
2018-08-16T10:51:33.335Z,5.42
2018-08-16T10:54:02.062Z,5.22
2018-08-16T10:56:30.778Z,4.53
2018-08-16T10:58:59.528Z,6.08
2018-08-16T11:01:28.626Z,7.45
2018-08-16T11:03:57.283Z,5.75
2018-08-16T11:06:25.970Z,5.40
2018-08-16T11:08:54.754Z,4.55
2018-08-16T11:11:23.422Z,5.10
2018-08-16T11:13:52.111Z,7.67
2018-08-16T11:16:20.771Z,5.33
2018-08-16T11:18:49.485Z,7.40
2018-08-16T11:21:18.199Z,6.40
2018-08-16T11:23:46.867Z,7.62
2018-08-16T11:26:15.538Z,6.42
2018-08-16T11:28:44.315Z,9.33
2018-08-16T11:31:13.126Z,6.70
2018-08-16T11:33:41.827Z,11.43
2018-08-16T11:36:10.552Z,7.72
2018-08-16T11:38:39.183Z,18.92
2018-08-16T11:41:07.858Z,7.00
2018-08-16T11:43:36.511Z,6.67
2018-08-16T11:46:05.165Z,7.15
2018-08-16T11:48:33.883Z,9.43
2018-08-16T11:51:02.614Z,6.22
2018-08-16T11:53:31.340Z,6.83
2018-08-16T11:56:00.020Z,5.90
2018-08-16T11:58:28.787Z,4.67
2018-08-16T12:00:57.542Z,5.30
2018-08-16T12:03:26.252Z,6.45
2018-08-16T12:05:55.111Z,7.45
2018-08-16T12:08:23.889Z,7.75
2018-08-16T12:10:52.562Z,5.28
2018-08-16T12:13:21.568Z,6.05
2018-08-16T12:15:50.231Z,7.35
2018-08-16T12:18:18.999Z,5.70
2018-08-16T12:20:47.674Z,4.90
2018-08-16T12:23:16.347Z,5.53
2018-08-16T12:25:45.069Z,8.28
2018-08-16T12:28:13.750Z,7.65
2018-08-16T12:30:42.506Z,4.60
2018-08-16T12:33:11.753Z,5.00
2018-08-16T12:35:40.458Z,5.97
2018-08-16T12:38:09.240Z,6.50
2018-08-16T12:40:38.019Z,6.62
2018-08-16T12:43:06.659Z,7.37
2018-08-16T12:45:35.380Z,5.25
2018-08-16T12:48:04.118Z,8.38
2018-08-16T12:50:32.778Z,6.12
2018-08-16T12:53:01.396Z,6.20
2018-08-16T12:55:30.044Z,7.37
2018-08-16T12:57:58.692Z,4.60
2018-08-16T13:01:17.668Z,5.37
2018-08-16T13:03:46.412Z,5.90
2018-08-16T13:06:15.089Z,7.95
2018-08-16T13:08:43.812Z,7.65
2018-08-16T13:11:12.571Z,5.12
2018-08-16T13:13:41.319Z,6.15
2018-08-16T13:16:10.122Z,4.60
2018-08-16T13:18:39.120Z,5.80
2018-08-16T13:21:08.141Z,6.28
2018-08-16T13:23:37.033Z,9.68
2018-08-16T13:26:06.185Z,7.60
2018-08-16T13:28:34.929Z,4.95
2018-08-16T13:31:03.799Z,6.20
2018-08-16T13:33:32.649Z,7.30
2018-08-16T13:36:01.347Z,6.00
2018-08-16T13:38:30.290Z,9.05
2018-08-16T13:40:59.103Z,5.42
2018-08-16T13:43:27.798Z,6.20
2018-08-16T13:45:56.563Z,5.37
2018-08-16T13:48:25.334Z,5.47
2018-08-16T13:50:53.964Z,6.45
2018-08-16T13:53:22.872Z,6.78
2018-08-16T13:55:51.646Z,6.37
2018-08-16T13:58:20.392Z,6.85
2018-08-16T14:00:49.135Z,6.80
2018-08-16T14:03:17.871Z,7.50
2018-08-16T14:05:46.570Z,6.45
2018-08-16T14:08:15.673Z,7.25
2018-08-16T14:10:46.692Z,8.33
2018-08-16T14:13:15.338Z,4.95
2018-08-16T14:15:44.102Z,7.60
2018-08-16T14:18:12.987Z,7.80
2018-08-16T14:20:42.051Z,7.25
2018-08-16T14:23:10.763Z,5.05
2018-08-16T14:25:39.463Z,5.95
2018-08-16T14:28:08.785Z,7.05
2018-08-16T14:30:37.636Z,4.62
2018-08-16T14:33:06.338Z,5.92
2018-08-16T14:35:35.339Z,10.70
2018-08-16T14:38:04.066Z,7.17
2018-08-16T14:40:32.736Z,5.10
2018-08-16T14:43:01.483Z,7.17
2018-08-16T14:45:30.286Z,6.72
2018-08-16T14:48:03.074Z,6.62
2018-08-16T14:50:31.768Z,8.70
2018-08-16T14:53:00.608Z,5.72
2018-08-16T14:55:29.324Z,6.37
2018-08-16T14:57:58.034Z,7.85
2018-08-16T15:00:26.918Z,5.17
2018-08-16T15:02:55.828Z,4.47
2018-08-16T15:05:24.581Z,6.87
2018-08-16T15:07:53.240Z,8.48
2018-08-16T15:10:21.899Z,7.03
2018-08-16T15:12:50.594Z,7.00
2018-08-16T15:15:19.366Z,6.03
2018-08-16T15:17:48.071Z,5.40
2018-08-16T15:20:16.732Z,6.55
2018-08-16T15:22:45.512Z,4.67
2018-08-16T15:25:14.205Z,3.85
2018-08-16T15:27:42.872Z,6.60
2018-08-16T15:30:11.656Z,6.97
2018-08-16T15:32:40.414Z,8.18
2018-08-16T15:35:09.180Z,5.50
2018-08-16T15:37:37.962Z,5.45
2018-08-16T15:40:07.155Z,5.17
2018-08-16T15:42:35.841Z,7.53
2018-08-16T15:45:05.171Z,5.17
2018-08-16T15:47:33.831Z,4.30
2018-08-16T15:50:02.602Z,7.65
2018-08-16T15:52:31.256Z,3.92
2018-08-16T15:54:59.991Z,5.25
2018-08-16T15:57:28.747Z,9.05
2018-08-16T15:59:57.681Z,6.65
2018-08-16T16:02:26.290Z,6.00
2018-08-16T16:04:55.006Z,6.67
2018-08-16T16:07:23.742Z,7.37
2018-08-16T16:09:52.769Z,6.72
2018-08-16T16:12:21.559Z,5.42
2018-08-16T16:14:50.169Z,4.78
2018-08-16T16:17:18.844Z,4.83
2018-08-16T16:19:47.616Z,6.65
2018-08-16T16:22:16.258Z,7.90
2018-08-16T16:24:45.021Z,8.50
2018-08-16T16:27:13.686Z,8.28
2018-08-16T16:29:42.374Z,7.60
2018-08-16T16:32:11.159Z,5.37
2018-08-16T16:34:39.845Z,5.75
2018-08-16T16:37:08.633Z,5.70
2018-08-16T16:39:37.452Z,6.58
2018-08-16T16:42:06.454Z,5.95
2018-08-16T16:44:35.254Z,6.15
2018-08-16T16:47:03.978Z,6.03
2018-08-16T16:49:32.724Z,5.45
2018-08-16T16:52:01.419Z,7.37
2018-08-16T16:54:30.122Z,5.83
2018-08-16T16:56:58.857Z,6.08
2018-08-16T16:59:27.578Z,9.80
2018-08-16T17:01:56.316Z,10.63
2018-08-16T17:04:25.269Z,6.00
2018-08-16T17:06:54.365Z,7.60
2018-08-16T17:09:23.144Z,7.65
2018-08-16T17:15:22.326Z,5.87
2018-08-16T17:17:51.007Z,6.85
2018-08-16T17:20:19.731Z,9.60
2018-08-16T17:22:48.433Z,9.00
2018-08-16T17:25:17.124Z,7.40
2018-08-16T17:27:45.931Z,9.33
2018-08-16T17:30:14.731Z,11.13
2018-08-16T17:32:43.532Z,6.80
2018-08-16T17:35:12.198Z,10.80
2018-08-16T17:37:40.872Z,9.10
2018-08-16T17:40:09.646Z,13.57
2018-08-16T17:42:38.313Z,10.43
2018-08-16T17:45:07.202Z,7.75
2018-08-16T17:47:36.052Z,10.67
2018-08-16T17:50:05.342Z,13.73
2018-08-16T17:52:34.490Z,10.87
2018-08-16T17:55:03.280Z,9.70
2018-08-16T17:57:32.944Z,10.13
2018-08-16T18:00:01.654Z,9.43
2018-08-16T18:02:30.467Z,11.60
2018-08-16T18:04:59.271Z,8.33
2018-08-16T18:07:28.043Z,9.77
2018-08-16T18:09:56.803Z,7.57
2018-08-16T18:12:25.622Z,8.60
2018-08-16T18:14:54.357Z,9.20
2018-08-16T18:17:23.257Z,10.40
2018-08-16T18:19:52.358Z,8.30
2018-08-16T18:22:21.073Z,7.50
2018-08-16T18:24:49.876Z,6.43
2018-08-16T18:27:18.705Z,7.10
2018-08-16T18:29:47.464Z,7.63
2018-08-16T18:32:16.327Z,11.53
2018-08-16T18:34:45.139Z,8.27
2018-08-16T18:37:13.943Z,9.87
2018-08-16T18:39:42.847Z,7.93
2018-08-16T18:42:11.711Z,8.63
2018-08-16T18:44:40.633Z,10.23
2018-08-16T18:47:09.452Z,8.13
2018-08-16T18:49:38.168Z,9.80
2018-08-16T18:52:06.921Z,10.83
2018-08-16T18:54:35.697Z,8.60
2018-08-16T18:57:04.425Z,8.20
2018-08-16T18:59:33.292Z,9.83
2018-08-16T19:02:01.970Z,12.50
2018-08-16T19:04:30.792Z,12.73
2018-08-16T19:06:59.531Z,10.50
2018-08-16T19:09:28.196Z,7.23
2018-08-16T19:11:56.939Z,9.30
2018-08-16T19:14:25.767Z,9.30
2018-08-16T19:16:54.535Z,17.60
2018-08-16T19:19:23.230Z,13.10
2018-08-16T19:21:52.036Z,8.23
2018-08-16T19:24:20.730Z,9.67
2018-08-16T19:26:49.406Z,9.93
2018-08-16T19:29:18.150Z,8.00
2018-08-16T19:31:46.881Z,9.23
2018-08-16T19:34:15.662Z,11.07
2018-08-16T19:36:44.421Z,10.73
2018-08-16T19:39:13.794Z,15.43
2018-08-16T19:41:42.539Z,12.60
2018-08-16T19:44:11.193Z,11.30
2018-08-16T19:46:39.890Z,9.73
2018-08-16T19:49:08.744Z,8.47
2018-08-16T19:51:38.104Z,10.37
2018-08-16T19:54:06.926Z,9.93
2018-08-16T19:56:35.601Z,17.20
2018-08-16T19:59:04.328Z,10.63
2018-08-16T20:01:33.061Z,12.03
2018-08-16T20:04:04.416Z,12.77
2018-08-16T20:06:33.166Z,13.40
2018-08-16T20:09:02.092Z,9.87
2018-08-16T20:11:30.870Z,13.43
2018-08-16T20:13:59.658Z,10.93
2018-08-16T20:16:28.375Z,16.50
2018-08-16T20:18:57.167Z,9.57
2018-08-16T20:21:26.610Z,7.90
2018-08-16T20:23:55.417Z,9.73
2018-08-16T20:26:24.206Z,10.03
2018-08-16T20:28:52.937Z,10.07
2018-08-16T20:31:21.747Z,13.03
2018-08-16T20:33:50.471Z,8.33
2018-08-16T20:36:19.209Z,8.57
2018-08-16T20:38:53.816Z,11.07
2018-08-16T20:41:22.597Z,12.97
2018-08-16T20:43:54.733Z,10.67
2018-08-16T20:46:26.335Z,8.97
2018-08-16T20:48:55.121Z,15.17
2018-08-16T20:51:23.916Z,13.30
2018-08-16T20:53:52.743Z,11.97
2018-08-16T20:56:21.452Z,11.10
2018-08-16T20:58:50.221Z,14.97
2018-08-16T21:01:18.910Z,13.27
2018-08-16T21:03:47.581Z,10.50
2018-08-16T21:06:16.239Z,15.00
2018-08-16T21:08:44.865Z,15.60
2018-08-16T21:11:13.535Z,16.13
2018-08-16T21:13:42.230Z,11.17
2018-08-16T21:16:10.977Z,24.73
2018-08-16T21:18:39.632Z,19.63
2018-08-16T21:21:08.270Z,20.27
2018-08-16T21:23:36.952Z,14.87
2018-08-16T21:26:05.648Z,13.87
2018-08-16T21:28:34.334Z,16.80
2018-08-16T21:31:03.026Z,16.73
2018-08-16T21:33:31.876Z,17.13
2018-08-16T21:36:00.534Z,14.17
2018-08-16T21:38:29.982Z,14.03
2018-08-16T21:40:58.727Z,11.53
2018-08-16T21:43:27.358Z,16.33
2018-08-16T21:45:56.033Z,14.03
2018-08-16T21:48:24.682Z,12.80
2018-08-16T21:50:53.402Z,13.57
2018-08-16T21:53:22.118Z,10.23
2018-08-16T21:55:50.805Z,12.97
2018-08-16T21:58:19.563Z,13.23
2018-08-16T22:00:56.852Z,13.60
2018-08-16T22:03:27.043Z,12.07
2018-08-16T22:05:59.298Z,14.37
2018-08-16T22:08:47.942Z,13.70
2018-08-16T22:11:16.689Z,12.23
2018-08-16T22:13:45.390Z,13.77
2018-08-16T22:16:14.147Z,13.33
2018-08-16T22:18:42.875Z,12.03
2018-08-16T22:21:11.809Z,11.37
2018-08-16T22:23:40.519Z,14.20
2018-08-16T22:26:09.357Z,11.27
2018-08-16T22:28:38.062Z,13.07
2018-08-16T22:31:07.066Z,13.37
2018-08-16T22:33:35.760Z,11.43
2018-08-16T22:36:04.465Z,11.03
2018-08-16T22:38:34.280Z,10.73
2018-08-16T22:41:03.064Z,12.50
2018-08-16T22:43:32.295Z,9.77
2018-08-16T22:46:01.061Z,10.33
2018-08-16T22:48:29.785Z,11.87
2018-08-16T22:50:58.517Z,10.17
2018-08-16T22:53:27.381Z,10.73
2018-08-16T22:55:56.082Z,12.10
2018-08-16T22:58:24.871Z,11.17
2018-08-16T23:00:53.584Z,11.60
2018-08-16T23:03:22.251Z,8.90
2018-08-16T23:05:50.932Z,8.93
2018-08-16T23:08:19.654Z,9.40
2018-08-16T23:10:48.373Z,10.27
2018-08-16T23:13:17.066Z,8.00
2018-08-16T23:15:45.802Z,11.53
2018-08-16T23:18:14.519Z,9.20
2018-08-16T23:20:43.216Z,11.17
2018-08-16T23:23:11.899Z,13.10
2018-08-16T23:25:40.582Z,11.67
2018-08-16T23:28:09.557Z,10.23
2018-08-16T23:30:38.243Z,11.90
2018-08-16T23:33:08.150Z,11.00
2018-08-16T23:35:36.952Z,10.43
2018-08-16T23:38:05.656Z,10.40
2018-08-16T23:40:34.432Z,9.27
2018-08-16T23:43:03.137Z,8.97
2018-08-16T23:45:31.840Z,10.67
2018-08-16T23:48:11.666Z,8.13
2018-08-16T23:50:40.397Z,10.97
2018-08-16T23:53:09.079Z,10.60
2018-08-16T23:55:37.791Z,10.10
2018-08-16T23:58:06.587Z,10.40
